createdAt,value
2018-11-10T00:01:41.388Z,81.33
2018-11-10T00:04:10.456Z,81.22
2018-11-10T00:06:38.924Z,81.63
2018-11-10T00:09:08.188Z,81.31
2018-11-10T00:11:36.790Z,81.00
2018-11-10T00:14:07.713Z,81.52
2018-11-10T00:16:36.481Z,81.77
2018-11-10T00:19:04.870Z,81.64
2018-11-10T00:21:33.316Z,81.99
2018-11-10T00:24:01.767Z,81.58
2018-11-10T00:26:30.405Z,81.63
2018-11-10T00:28:59.021Z,81.74
2018-11-10T00:31:27.861Z,81.54
2018-11-10T00:33:56.603Z,81.70
2018-11-10T00:36:25.001Z,81.85
2018-11-10T00:38:53.872Z,81.92
2018-11-10T00:41:22.354Z,81.56
2018-11-10T00:43:50.796Z,81.83
2018-11-10T00:46:19.261Z,82.17
2018-11-10T00:48:47.784Z,81.66
2018-11-10T00:51:16.266Z,81.63
2018-11-10T00:53:44.759Z,81.72
2018-11-10T00:56:13.281Z,81.55
2018-11-10T00:58:41.738Z,81.88
2018-11-10T01:01:10.322Z,81.76
2018-11-10T01:03:39.443Z,81.73
2018-11-10T01:06:07.868Z,81.35
2018-11-10T01:08:36.335Z,82.19
2018-11-10T01:11:05.045Z,81.67
2018-11-10T01:13:33.433Z,81.71
2018-11-10T01:16:01.836Z,82.08
2018-11-10T01:18:30.248Z,81.66
2018-11-10T01:20:58.662Z,81.76
2018-11-10T01:23:27.855Z,81.48
2018-11-10T01:25:56.313Z,81.81
2018-11-10T01:28:24.717Z,81.54
2018-11-10T01:30:53.737Z,81.78
2018-11-10T01:33:22.175Z,82.08
2018-11-10T01:35:50.627Z,81.53
2018-11-10T01:38:19.200Z,81.89
2018-11-10T01:40:47.644Z,82.09
2018-11-10T01:43:16.243Z,81.38
2018-11-10T01:45:44.668Z,81.55
2018-11-10T01:48:13.126Z,81.40
2018-11-10T01:50:41.630Z,81.52
2018-11-10T01:53:13.177Z,81.34
2018-11-10T01:55:41.678Z,81.52
2018-11-10T01:58:10.127Z,81.16
2018-11-10T02:00:39.249Z,81.11
2018-11-10T02:03:07.677Z,81.02
2018-11-10T02:05:36.166Z,80.93
2018-11-10T02:08:05.034Z,80.91
2018-11-10T02:10:33.472Z,81.32
2018-11-10T02:13:02.266Z,80.84
2018-11-10T02:15:30.732Z,80.59
2018-11-10T02:17:59.158Z,80.51
2018-11-10T02:20:27.713Z,81.09
2018-11-10T02:22:56.368Z,80.53
2018-11-10T02:25:24.812Z,80.61
2018-11-10T02:27:53.288Z,80.59
2018-11-10T02:30:21.782Z,80.58
2018-11-10T02:32:50.335Z,80.59
2018-11-10T02:35:18.877Z,80.54
2018-11-10T02:37:47.298Z,80.31
2018-11-10T02:40:16.012Z,80.20
2018-11-10T02:42:45.213Z,80.37
2018-11-10T02:45:14.554Z,80.33
2018-11-10T02:47:43.846Z,79.97
2018-11-10T02:52:46.558Z,79.59
2018-11-10T02:55:14.964Z,79.30
2018-11-10T02:57:43.553Z,79.30
2018-11-10T03:00:13.303Z,78.39
2018-11-10T03:02:41.784Z,78.22
2018-11-10T03:05:10.998Z,78.02
2018-11-10T03:07:39.894Z,77.51
2018-11-10T03:10:09.875Z,77.14
2018-11-10T03:12:38.996Z,76.94
2018-11-10T03:15:09.200Z,76.58
2018-11-10T03:17:37.866Z,76.83
2018-11-10T03:20:09.505Z,76.74
2018-11-10T03:22:38.455Z,75.95
2018-11-10T03:25:07.111Z,75.81
2018-11-10T03:27:35.649Z,75.26
2018-11-10T03:30:04.138Z,74.94
2018-11-10T03:32:32.577Z,75.07
2018-11-10T03:35:00.971Z,74.71
2018-11-10T03:37:29.531Z,74.82
2018-11-10T03:39:57.940Z,74.72
2018-11-10T03:42:26.377Z,74.73
2018-11-10T03:44:54.782Z,74.16
2018-11-10T03:47:23.368Z,74.61
2018-11-10T03:49:51.848Z,74.38
2018-11-10T03:52:24.141Z,74.27
2018-11-10T03:54:52.550Z,73.91
2018-11-10T03:57:20.964Z,74.77
2018-11-10T03:59:49.331Z,73.70
2018-11-10T04:02:18.288Z,73.93
2018-11-10T04:04:46.711Z,73.80
2018-11-10T04:07:15.153Z,73.63
2018-11-10T04:09:44.421Z,73.99
2018-11-10T04:12:12.901Z,73.89
2018-11-10T04:14:41.292Z,73.99
2018-11-10T04:17:09.750Z,73.39
2018-11-10T04:19:38.143Z,73.58
2018-11-10T04:22:06.908Z,73.45
2018-11-10T04:24:36.148Z,73.47
2018-11-10T04:27:05.122Z,73.31
2018-11-10T04:29:33.525Z,73.18
2018-11-10T04:32:01.966Z,73.77
2018-11-10T04:34:30.374Z,73.03
2018-11-10T04:36:58.824Z,73.25
2018-11-10T04:39:27.421Z,73.03
2018-11-10T04:41:56.138Z,73.01
2018-11-10T04:44:26.774Z,72.36
2018-11-10T04:46:55.296Z,71.99
2018-11-10T04:49:23.712Z,72.19
2018-11-10T04:51:52.175Z,72.07
2018-11-10T04:54:20.711Z,73.01
2018-11-10T04:56:49.081Z,72.58
2018-11-10T04:59:17.478Z,72.78
2018-11-10T05:01:45.919Z,72.61
2018-11-10T05:04:14.377Z,72.52
2018-11-10T05:06:42.788Z,72.52
2018-11-10T05:09:11.794Z,72.43
2018-11-10T05:11:40.615Z,72.34
2018-11-10T05:14:09.233Z,73.01
2018-11-10T05:16:37.755Z,73.63
2018-11-10T05:19:06.484Z,73.93
2018-11-10T05:21:34.895Z,74.69
2018-11-10T05:24:03.571Z,75.04
2018-11-10T05:26:31.993Z,75.56
2018-11-10T05:29:00.375Z,76.32
2018-11-10T05:31:28.868Z,77.16
2018-11-10T05:33:57.306Z,77.22
2018-11-10T05:36:25.742Z,77.58
2018-11-10T05:38:54.139Z,78.91
2018-11-10T05:41:22.538Z,78.45
2018-11-10T05:43:52.354Z,79.15
2018-11-10T05:46:20.756Z,78.96
2018-11-10T05:48:52.967Z,79.55
2018-11-10T05:51:21.385Z,79.95
2018-11-10T05:53:49.820Z,79.95
2018-11-10T05:56:18.205Z,80.31
2018-11-10T05:58:46.845Z,80.59
2018-11-10T06:01:15.264Z,80.90
2018-11-10T06:03:43.788Z,81.14
2018-11-10T06:06:12.195Z,80.77
2018-11-10T06:08:40.600Z,81.16
2018-11-10T06:11:10.508Z,81.41
2018-11-10T06:13:39.044Z,81.70
2018-11-10T06:16:07.566Z,81.40
2018-11-10T06:18:36.040Z,81.83
2018-11-10T06:21:04.452Z,82.10
2018-11-10T06:23:32.873Z,82.27
2018-11-10T06:26:01.363Z,82.63
2018-11-10T06:28:29.814Z,82.40
2018-11-10T06:30:58.222Z,83.62
2018-11-10T06:33:26.632Z,83.05
2018-11-10T06:35:55.053Z,82.75
2018-11-10T06:38:23.475Z,83.23
2018-11-10T06:40:52.916Z,82.95
2018-11-10T06:43:21.357Z,83.11
2018-11-10T06:45:49.859Z,83.35
2018-11-10T06:48:18.382Z,83.42
2018-11-10T06:50:46.975Z,83.46
2018-11-10T06:53:15.374Z,83.26
2018-11-10T07:00:40.573Z,83.07
2018-11-10T07:03:08.993Z,83.35
2018-11-10T07:05:37.419Z,83.40
2018-11-10T07:08:06.706Z,83.40
2018-11-10T07:10:35.138Z,82.98
2018-11-10T07:13:03.571Z,83.65
2018-11-10T07:15:31.960Z,83.44
2018-11-10T07:18:00.453Z,83.45
2018-11-10T07:20:28.786Z,83.69
2018-11-10T07:22:57.244Z,83.37
2018-11-10T07:25:25.689Z,82.96
2018-11-10T07:27:54.960Z,83.17
2018-11-10T07:30:23.383Z,83.03
2018-11-10T07:32:51.839Z,83.08
2018-11-10T07:35:20.494Z,83.11
2018-11-10T07:37:48.940Z,83.06
2018-11-10T07:40:17.329Z,83.17
2018-11-10T07:42:46.113Z,82.80
2018-11-10T07:45:15.707Z,83.03
2018-11-10T07:47:44.941Z,82.77
2018-11-10T07:50:13.600Z,82.58
2018-11-10T07:52:42.777Z,82.48
2018-11-10T07:55:13.084Z,82.49
2018-11-10T08:00:16.664Z,82.19
2018-11-10T08:02:45.094Z,82.13
2018-11-10T08:05:14.387Z,82.31
2018-11-10T08:07:43.687Z,82.34
2018-11-10T08:10:12.902Z,82.36
2018-11-10T08:12:41.391Z,82.00
2018-11-10T08:17:46.750Z,82.40
2018-11-10T08:20:15.553Z,81.91
2018-11-10T08:22:44.000Z,82.02
2018-11-10T08:25:13.839Z,82.11
2018-11-10T08:27:42.439Z,82.20
2018-11-10T08:32:46.921Z,82.06
2018-11-10T08:35:15.653Z,82.23
2018-11-10T08:37:44.086Z,82.11
2018-11-10T08:40:14.626Z,81.91
2018-11-10T08:42:43.095Z,81.76
2018-11-10T08:45:12.876Z,81.71
2018-11-10T08:47:42.250Z,82.04
2018-11-10T08:52:45.954Z,81.79
2018-11-10T08:55:14.912Z,82.03
2018-11-10T08:57:43.821Z,81.78
2018-11-10T09:00:12.902Z,82.18
2018-11-10T09:02:41.425Z,81.86
2018-11-10T09:05:11.296Z,82.08
2018-11-10T09:07:39.868Z,82.29
2018-11-10T09:10:10.321Z,81.72
2018-11-10T09:12:38.827Z,81.94
2018-11-10T09:15:09.401Z,81.78
2018-11-10T09:17:37.929Z,82.05
2018-11-10T09:20:10.595Z,81.53
2018-11-10T09:22:39.234Z,82.00
2018-11-10T09:25:09.816Z,81.82
2018-11-10T09:27:39.294Z,81.24
2018-11-10T09:30:08.946Z,81.95
2018-11-10T09:32:40.694Z,81.83
2018-11-10T09:35:10.511Z,81.33
2018-11-10T09:37:39.186Z,80.60
2018-11-10T09:40:09.862Z,80.91
2018-11-10T09:42:38.744Z,80.52
2018-11-10T09:45:08.794Z,80.41
2018-11-10T09:47:37.811Z,80.45
2018-11-10T09:50:13.145Z,80.01
2018-11-10T09:52:42.174Z,80.03
2018-11-10T09:55:10.811Z,79.53
2018-11-10T09:57:39.484Z,79.98
2018-11-10T10:00:13.307Z,79.58
2018-11-10T10:02:42.228Z,79.16
2018-11-10T10:05:10.603Z,79.62
2018-11-10T10:07:39.992Z,78.88
2018-11-10T10:12:48.900Z,78.34
2018-11-10T10:15:18.369Z,78.69
2018-11-10T10:17:47.400Z,78.78
2018-11-10T10:20:18.614Z,78.56
2018-11-10T10:22:47.955Z,79.22
2018-11-10T10:25:17.304Z,78.60
2018-11-10T10:27:46.805Z,78.54
2018-11-10T10:30:17.452Z,78.96
2018-11-10T10:32:47.004Z,78.35
2018-11-10T10:35:16.027Z,77.93
2018-11-10T10:37:45.379Z,77.93
2018-11-10T10:40:14.441Z,78.55
2018-11-10T10:42:43.687Z,78.73
2018-11-10T10:45:19.823Z,78.70
2018-11-10T10:47:48.258Z,78.67
2018-11-10T10:50:18.162Z,78.84
2018-11-10T10:52:46.694Z,79.02
2018-11-10T10:55:16.392Z,78.73
2018-11-10T10:57:45.795Z,78.76
2018-11-10T11:04:02.283Z,79.13
2018-11-10T11:06:32.259Z,79.99
2018-11-10T11:09:00.725Z,80.66
2018-11-10T11:11:29.260Z,80.82
2018-11-10T11:14:00.765Z,80.87
2018-11-10T11:16:29.398Z,81.11
2018-11-10T11:18:57.973Z,81.51
2018-11-10T11:21:26.532Z,82.17
2018-11-10T11:23:54.949Z,82.54
2018-11-10T11:26:23.404Z,82.92
2018-11-10T11:28:51.928Z,83.61
2018-11-10T11:31:20.483Z,83.23
2018-11-10T11:33:49.249Z,83.34
2018-11-10T11:36:18.207Z,83.42
2018-11-10T11:38:46.633Z,84.13
2018-11-10T11:41:15.334Z,83.86
2018-11-10T11:43:43.876Z,84.59
2018-11-10T11:46:12.492Z,84.37
2018-11-10T11:48:41.165Z,84.70
2018-11-10T11:51:09.598Z,85.08
2018-11-10T11:53:38.174Z,85.04
2018-11-10T11:56:06.639Z,84.80
2018-11-10T11:58:35.138Z,84.80
2018-11-10T12:01:03.705Z,84.25
2018-11-10T12:03:32.168Z,85.31
2018-11-10T12:06:00.635Z,85.38
2018-11-10T12:08:29.714Z,85.74
2018-11-10T12:10:58.172Z,85.59
2018-11-10T12:13:26.663Z,86.27
2018-11-10T12:15:55.084Z,85.69
2018-11-10T12:18:23.484Z,86.06
2018-11-10T12:20:52.079Z,85.79
2018-11-10T12:23:20.893Z,86.58
2018-11-10T12:25:49.313Z,86.20
2018-11-10T12:28:17.815Z,86.06
2018-11-10T12:30:46.431Z,86.73
2018-11-10T12:33:14.900Z,86.39
2018-11-10T12:35:43.522Z,87.06
2018-11-10T12:38:12.010Z,86.47
2018-11-10T12:40:41.045Z,86.66
2018-11-10T12:43:09.485Z,86.89
2018-11-10T12:45:39.610Z,86.72
2018-11-10T12:48:08.321Z,86.65
2018-11-10T12:50:36.774Z,86.84
2018-11-10T12:53:05.413Z,86.01
2018-11-10T12:55:36.686Z,86.50
2018-11-10T12:58:05.666Z,86.62
2018-11-10T13:00:34.166Z,86.36
2018-11-10T13:03:02.593Z,86.41
2018-11-10T13:05:31.001Z,86.60
2018-11-10T13:07:59.575Z,86.44
2018-11-10T13:10:28.079Z,86.81
2018-11-10T13:12:56.559Z,86.68
2018-11-10T13:15:25.042Z,87.04
2018-11-10T13:17:53.666Z,87.07
2018-11-10T13:20:22.134Z,87.20
2018-11-10T13:22:50.651Z,87.39
2018-11-10T13:25:19.269Z,86.94
2018-11-10T13:27:47.715Z,87.03
2018-11-10T13:30:16.827Z,87.74
2018-11-10T13:32:45.550Z,87.29
2018-11-10T13:35:13.986Z,87.72
2018-11-10T13:37:42.441Z,86.91
2018-11-10T13:40:11.363Z,87.72
2018-11-10T13:42:39.802Z,87.40
2018-11-10T13:45:10.270Z,87.13
2018-11-10T13:47:38.883Z,87.24
2018-11-10T13:50:09.621Z,87.97
2018-11-10T13:52:38.967Z,87.98
2018-11-10T13:55:07.234Z,87.82
2018-11-10T13:57:35.664Z,87.33
2018-11-10T14:00:05.254Z,87.89
2018-11-10T14:02:33.685Z,87.60
2018-11-10T14:05:02.320Z,88.37
2018-11-10T14:07:30.915Z,88.39
2018-11-10T14:09:59.351Z,88.46
2018-11-10T14:12:27.991Z,88.01
2018-11-10T14:14:56.486Z,88.87
2018-11-10T14:17:25.225Z,88.68
2018-11-10T14:19:53.860Z,88.82
2018-11-10T14:22:22.283Z,88.58
2018-11-10T14:24:50.839Z,88.65
2018-11-10T14:27:19.469Z,88.76
2018-11-10T14:29:48.013Z,88.37
2018-11-10T14:32:16.476Z,88.45
2018-11-10T14:34:44.921Z,88.51
2018-11-10T14:37:13.345Z,88.93
2018-11-10T14:39:41.777Z,88.46
2018-11-10T14:42:10.540Z,88.84
2018-11-10T14:44:39.021Z,88.83
2018-11-10T14:47:07.473Z,88.79
2018-11-10T14:49:36.000Z,88.38
2018-11-10T14:52:04.861Z,88.81
2018-11-10T14:54:33.235Z,88.64
2018-11-10T14:59:36.379Z,88.98
2018-11-10T15:02:05.346Z,88.81
2018-11-10T15:04:33.819Z,88.63
2018-11-10T15:07:02.383Z,88.64
2018-11-10T15:09:30.945Z,88.28
2018-11-10T15:12:01.607Z,88.28
2018-11-10T15:14:29.986Z,89.12
2018-11-10T15:16:58.557Z,88.66
2018-11-10T15:19:26.989Z,87.91
2018-11-10T15:21:55.436Z,87.92
2018-11-10T15:24:26.201Z,87.51
2018-11-10T15:26:54.668Z,86.94
2018-11-10T15:29:23.393Z,86.97
2018-11-10T15:31:52.669Z,86.58
2018-11-10T15:34:21.298Z,86.67
2018-11-10T15:36:49.821Z,86.59
2018-11-10T15:39:18.365Z,86.30
2018-11-10T15:41:46.890Z,86.44
2018-11-10T15:44:15.498Z,86.06
2018-11-10T15:46:44.013Z,86.06
2018-11-10T15:49:12.434Z,85.10
2018-11-10T15:51:40.896Z,85.36
2018-11-10T15:54:09.347Z,86.46
2018-11-10T15:56:37.772Z,85.96
2018-11-10T15:59:06.343Z,86.58
2018-11-10T16:01:34.770Z,87.12
2018-11-10T16:04:03.213Z,86.94
2018-11-10T16:06:31.786Z,87.39
2018-11-10T16:09:00.394Z,87.20
2018-11-10T16:11:28.911Z,87.39
2018-11-10T16:13:57.326Z,87.17
2018-11-10T16:16:26.021Z,87.44
2018-11-10T16:19:01.511Z,87.22
2018-11-10T16:21:30.062Z,87.49
2018-11-10T16:23:58.584Z,87.27
2018-11-10T16:26:27.258Z,87.27
2018-11-10T16:28:55.817Z,87.39
2018-11-10T16:31:24.936Z,87.03
2018-11-10T16:33:53.383Z,86.56
2018-11-10T16:36:21.801Z,86.51
2018-11-10T16:38:50.528Z,86.67
2018-11-10T16:41:19.132Z,86.93
2018-11-10T16:43:47.576Z,86.12
2018-11-10T16:46:16.116Z,86.40
2018-11-10T16:48:44.714Z,86.21
2018-11-10T16:51:16.540Z,86.12
2018-11-10T16:53:44.976Z,85.32
2018-11-10T16:56:13.425Z,84.95
2018-11-10T16:58:41.947Z,85.96
2018-11-10T17:01:10.442Z,85.33
2018-11-10T17:03:38.904Z,85.44
2018-11-10T17:06:07.326Z,84.98
2018-11-10T17:08:35.772Z,85.41
2018-11-10T17:11:04.213Z,85.13
2018-11-10T17:13:32.668Z,84.66
2018-11-10T17:16:01.213Z,84.68
2018-11-10T17:18:29.793Z,84.72
2018-11-10T17:21:01.007Z,85.03
2018-11-10T17:23:29.530Z,85.38
2018-11-10T17:25:57.936Z,84.96
2018-11-10T17:28:26.472Z,85.18
2018-11-10T17:30:56.924Z,85.25
2018-11-10T17:33:25.511Z,85.69
2018-11-10T17:35:54.088Z,86.09
2018-11-10T17:38:22.633Z,85.12
2018-11-10T17:40:51.074Z,85.48
2018-11-10T17:43:19.516Z,85.74
2018-11-10T17:45:48.042Z,85.32
2018-11-10T17:48:16.560Z,85.09
2018-11-10T17:50:45.033Z,85.37
2018-11-10T17:53:13.542Z,85.62
2018-11-10T17:55:42.173Z,85.57
2018-11-10T17:58:10.722Z,85.86
2018-11-10T18:00:39.131Z,85.40
2018-11-10T18:03:07.703Z,85.59
2018-11-10T18:05:36.178Z,85.39
2018-11-10T18:08:04.657Z,85.52
2018-11-10T18:10:33.225Z,85.84
2018-11-10T18:13:01.914Z,85.19
2018-11-10T18:15:30.392Z,85.57
2018-11-10T18:17:58.813Z,85.54
2018-11-10T18:20:27.252Z,85.32
2018-11-10T18:22:55.714Z,85.17
2018-11-10T18:25:24.267Z,85.52
2018-11-10T18:27:52.627Z,85.64
2018-11-10T18:30:21.154Z,85.40
2018-11-10T18:32:49.692Z,85.49
2018-11-10T18:35:18.144Z,85.55
2018-11-10T18:37:50.663Z,85.99
2018-11-10T18:40:19.075Z,85.72
2018-11-10T18:42:47.524Z,86.18
2018-11-10T18:45:16.074Z,85.82
2018-11-10T18:47:44.562Z,86.87
2018-11-10T18:50:14.310Z,86.35
2018-11-10T18:52:43.125Z,86.46
2018-11-10T18:55:12.266Z,86.99
2018-11-10T18:57:40.953Z,86.67
2018-11-10T19:00:11.886Z,87.13
2018-11-10T19:02:41.153Z,86.29
2018-11-10T19:05:11.481Z,86.51
2018-11-10T19:07:40.281Z,87.05
2018-11-10T19:10:11.132Z,86.71
2018-11-10T19:12:40.071Z,86.92
2018-11-10T19:15:11.016Z,86.55
2018-11-10T19:20:14.506Z,86.69
2018-11-10T19:22:43.664Z,86.76
2018-11-10T19:25:13.897Z,87.52
2018-11-10T19:27:42.534Z,87.05
2018-11-10T19:30:19.477Z,87.35
2018-11-10T19:32:48.848Z,87.55
2018-11-10T19:35:18.271Z,87.46
2018-11-10T19:37:47.114Z,88.15
2018-11-10T19:40:15.662Z,87.63
2018-11-10T19:42:45.277Z,87.99
2018-11-10T19:45:13.795Z,87.29
2018-11-10T19:47:44.155Z,88.01
2018-11-10T19:50:13.434Z,88.10
2018-11-10T19:52:41.953Z,88.22
2018-11-10T19:55:13.023Z,88.01
2018-11-10T19:57:41.690Z,88.52
2018-11-10T20:00:12.746Z,88.42
2018-11-10T20:02:41.378Z,88.98
2018-11-10T20:07:44.257Z,88.33
2018-11-10T20:10:13.189Z,88.94
2018-11-10T20:12:42.293Z,88.42
2018-11-10T20:15:12.393Z,88.53
2018-11-10T20:17:41.642Z,89.00
2018-11-10T20:20:11.208Z,89.24
2018-11-10T20:22:39.967Z,88.62
2018-11-10T20:25:10.772Z,88.73
2018-11-10T20:27:39.349Z,88.91
2018-11-10T20:30:11.298Z,88.86
2018-11-10T20:32:39.904Z,88.24
2018-11-10T20:35:09.928Z,88.19
2018-11-10T20:37:39.008Z,88.38
2018-11-10T20:40:08.872Z,88.31
2018-11-10T20:42:43.729Z,88.72
2018-11-10T20:45:14.694Z,88.09
2018-11-10T20:47:43.381Z,88.05
2018-11-10T20:50:12.484Z,87.96
2018-11-10T20:52:41.193Z,87.98
2018-11-10T20:55:10.867Z,87.90
2018-11-10T20:57:39.836Z,88.00
2018-11-10T21:00:10.809Z,87.93
2018-11-10T21:02:40.299Z,87.84
2018-11-10T21:05:10.123Z,87.38
2018-11-10T21:07:38.959Z,88.29
2018-11-10T21:10:09.503Z,88.19
2018-11-10T21:12:38.793Z,87.35
2018-11-10T21:15:08.967Z,87.49
2018-11-10T21:17:37.960Z,86.92
2018-11-10T21:20:08.675Z,87.45
2018-11-10T21:22:37.156Z,87.46
2018-11-10T21:25:08.417Z,86.86
2018-11-10T21:27:42.236Z,87.41
2018-11-10T21:30:13.021Z,87.18
2018-11-10T21:32:42.603Z,87.22
2018-11-10T21:35:11.401Z,86.82
2018-11-10T21:37:40.078Z,87.00
2018-11-10T21:40:12.194Z,86.69
2018-11-10T21:42:41.821Z,86.98
2018-11-10T21:45:11.634Z,87.03
2018-11-10T21:47:41.734Z,87.01
2018-11-10T21:50:12.977Z,87.13
2018-11-10T21:52:42.762Z,87.19
2018-11-10T21:55:12.942Z,86.60
2018-11-10T21:57:41.745Z,86.91
2018-11-10T22:00:12.581Z,86.53
2018-11-10T22:02:42.214Z,86.89
2018-11-10T22:05:10.983Z,86.69
2018-11-10T22:07:39.799Z,86.70
2018-11-10T22:10:11.625Z,86.70
2018-11-10T22:12:40.804Z,86.76
2018-11-10T22:15:12.114Z,87.30
2018-11-10T22:17:41.485Z,86.80
2018-11-10T22:20:12.055Z,87.19
2018-11-10T22:22:40.885Z,86.25
2018-11-10T22:25:10.473Z,86.58
2018-11-10T22:27:40.475Z,86.06
2018-11-10T22:30:10.989Z,86.32
2018-11-10T22:32:39.653Z,85.60
2018-11-10T22:35:08.916Z,86.55
2018-11-10T22:37:37.472Z,85.89
2018-11-10T22:40:08.449Z,86.08
2018-11-10T22:42:37.793Z,85.94
2018-11-10T22:45:07.854Z,85.68
2018-11-10T22:47:36.561Z,85.00
2018-11-10T22:50:06.685Z,85.44
2018-11-10T22:52:35.507Z,84.73
2018-11-10T22:55:03.992Z,85.12
2018-11-10T22:57:32.807Z,85.21
2018-11-10T23:00:01.286Z,84.90
2018-11-10T23:02:29.763Z,85.39
2018-11-10T23:04:58.286Z,84.67
2018-11-10T23:07:26.734Z,84.75
2018-11-10T23:09:55.240Z,84.64
2018-11-10T23:12:24.065Z,84.79
2018-11-10T23:14:52.559Z,84.93
2018-11-10T23:17:21.122Z,85.05
2018-11-10T23:19:49.535Z,84.95
2018-11-10T23:22:17.972Z,85.13
2018-11-10T23:24:46.481Z,84.56
2018-11-10T23:27:14.920Z,85.12
2018-11-10T23:29:43.432Z,85.13
2018-11-10T23:32:11.826Z,85.08
2018-11-10T23:34:40.231Z,85.08
2018-11-10T23:37:08.709Z,85.01
2018-11-10T23:39:37.128Z,84.74
2018-11-10T23:42:05.965Z,85.13
2018-11-10T23:44:34.446Z,85.04
2018-11-10T23:47:02.845Z,84.89
2018-11-10T23:49:31.260Z,84.84
2018-11-10T23:51:59.701Z,85.42
2018-11-10T23:54:28.187Z,84.90
2018-11-10T23:56:56.871Z,84.62
2018-11-10T23:59:25.286Z,84.75
